Time;durP1;ratioP1;P1;durP2;ratioP2;P2;SDS_P1;SDS_P2;PMS_P1;PMS_P2;Temp;Humidity;BMP_temperature;BMP_pressure;BME280_temperature;BME280_humidity;BME280_pressure;Samples;Min_cycle;Max_cycle;Signal;HPM_P1;HPM_P2
2021/11/11 00:00:57;;;;;;;90.35;44.88;;;;;;;0.74;83.85;101733.66;1757818;80;20934;-75
2021/11/11 00:03:24;;;;;;;90.85;46.53;;;;;;;0.77;83.86;101732.91;1748765;81;21338;-75
2021/11/11 00:05:50;;;;;;;102.45;52.30;;;;;;;0.78;83.87;101730.42;1746721;81;21396;-75
2021/11/11 00:08:16;;;;;;;98.00;49.48;;;;;;;0.79;83.89;101733.44;1704960;82;21428;-75
2021/11/11 00:10:42;;;;;;;95.45;49.60;;;;;;;0.83;83.92;101739.53;1751345;81;25232;-75
2021/11/11 00:13:09;;;;;;;97.60;51.35;;;;;;;0.85;83.91;101740.47;1732694;81;21316;-75
2021/11/11 00:15:35;;;;;;;96.82;48.25;;;;;;;0.85;83.88;101722.64;1756511;81;25177;-75
2021/11/11 00:18:01;;;;;;;;;;;;;;;0.85;83.79;101721.37;1745131;81;21384;-75
2021/11/11 00:20:28;;;;;;;110.78;50.98;;;;;;;0.86;83.86;101724.38;1680310;82;20326;-75
2021/11/11 00:22:55;;;;;;;;;;;;;;;0.87;83.87;101720.63;1701563;84;21038;-75
2021/11/11 00:25:22;;;;;;;;;;;;;;;0.86;83.87;101726.52;1706271;82;20123;-75
2021/11/11 00:27:48;;;;;;;104.60;48.83;;;;;;;0.86;83.94;101726.52;1729480;82;20437;-75
2021/11/11 00:30:18;;;;;;;101.70;49.88;;;;;;;0.88;83.96;101729.13;1712682;82;28018;-75
2021/11/11 00:32:45;;;;;;;100.30;49.38;;;;;;;0.91;84.04;101737.77;1686114;84;20893;-75
2021/11/11 00:35:16;;;;;;;103.40;53.00;;;;;;;0.95;84.13;101740.04;1726908;82;20907;-75
2021/11/11 00:37:44;;;;;;;99.65;50.08;;;;;;;1.01;84.21;101745.37;1673855;84;20962;-75
2021/11/11 00:40:11;;;;;;;;;;;;;;;1.08;84.22;101751.56;1692710;83;20951;-75
2021/11/11 00:42:38;;;;;;;90.20;44.38;;;;;;;1.12;84.32;101754.30;1684836;84;20111;-75
2021/11/11 00:45:05;;;;;;;94.80;46.70;;;;;;;1.19;84.30;101760.11;1672499;84;20919;-75
2021/11/11 00:47:32;;;;;;;94.58;48.45;;;;;;;1.26;84.34;101758.67;1747769;82;20926;-75
2021/11/11 00:49:58;;;;;;;;;;;;;;;1.31;84.31;101754.63;1749972;81;20997;-75
2021/11/11 00:52:25;;;;;;;95.80;46.23;;;;;;;1.36;84.33;101761.19;1743806;81;20227;-75
2021/11/11 00:54:51;;;;;;;98.35;47.83;;;;;;;1.40;84.32;101755.41;1735169;81;21033;-75
2021/11/11 00:57:17;;;;;;;95.38;48.48;;;;;;;1.45;84.29;101753.91;1742845;81;22135;-75
2021/11/11 00:59:45;;;;;;;90.70;46.80;;;;;;;1.49;84.27;101744.30;1747126;81;21487;-75
2021/11/11 01:02:11;;;;;;;96.78;49.45;;;;;;;1.54;84.33;101729.64;1744299;80;21021;-75
2021/11/11 01:04:39;;;;;;;91.40;46.45;;;;;;;1.58;84.35;101723.83;1741148;82;21073;-75
2021/11/11 01:07:09;;;;;;;93.35;48.78;;;;;;;1.60;84.33;101733.67;1719237;81;21608;-75
2021/11/11 01:09:37;;;;;;;95.80;46.18;;;;;;;1.65;84.36;101741.50;1747176;81;21470;-75
2021/11/11 01:12:05;;;;;;;84.87;46.25;;;;;;;1.67;84.29;101734.78;1734175;81;20863;-75
2021/11/11 01:14:31;;;;;;;83.17;44.88;;;;;;;1.70;84.32;101735.30;1718233;82;21833;-75
2021/11/11 01:16:57;;;;;;;81.75;43.78;;;;;;;1.74;84.32;101730.38;1718266;80;20918;-75
2021/11/11 01:19:24;;;;;;;88.65;46.95;;;;;;;1.77;84.32;101736.86;1747209;82;20895;-75
2021/11/11 01:21:50;;;;;;;89.30;45.12;;;;;;;1.80;84.32;101732.28;1735646;81;21391;-75
2021/11/11 01:24:20;;;;;;;86.00;44.80;;;;;;;1.80;84.23;101731.02;1747922;81;20866;-75
2021/11/11 01:26:46;;;;;;;;;;;;;;;1.79;84.19;101724.17;1735307;81;20875;-75
2021/11/11 01:29:12;;;;;;;81.02;43.13;;;;;;;1.79;84.19;101730.14;1718035;82;20220;-75
2021/11/11 01:31:39;;;;;;;87.08;44.03;;;;;;;1.75;84.13;101720.64;1718304;82;26363;-75
2021/11/11 01:34:05;;;;;;;86.15;43.95;;;;;;;1.70;84.10;101727.24;1720810;81;20895;-75
2021/11/11 01:36:31;;;;;;;81.02;43.42;;;;;;;1.68;84.14;101733.97;1733391;82;20898;-75
2021/11/11 01:38:58;;;;;;;78.27;42.80;;;;;;;1.66;84.18;101739.00;1727252;82;20836;-75
2021/11/11 01:41:24;;;;;;;84.85;43.00;;;;;;;1.65;84.18;101741.50;1748197;81;21594;-75
2021/11/11 01:43:52;;;;;;;81.85;42.58;;;;;;;1.64;84.17;101743.58;1746823;81;20915;-75
2021/11/11 01:46:18;;;;;;;;;;;;;;;1.62;84.11;101742.66;1746469;80;20914;-75
2021/11/11 01:48:45;;;;;;;84.40;39.75;;;;;;;1.59;84.12;101736.16;1745938;82;20141;-75
2021/11/11 01:51:12;;;;;;;82.55;43.90;;;;;;;1.55;84.09;101729.24;1758733;80;20894;-75
2021/11/11 01:53:38;;;;;;;56.98;31.97;;;;;;;1.51;84.08;101724.84;1769886;79;20914;-75
2021/11/11 01:56:04;;;;;;;98.92;39.75;;;;;;;1.47;84.12;101715.33;1775837;80;20941;-75
2021/11/11 01:58:31;;;;;;;90.20;41.95;;;;;;;1.45;84.20;101715.67;1780557;79;20946;-75
2021/11/11 02:00:59;;;;;;;76.53;39.78;;;;;;;1.42;84.16;101706.64;1757844;79;20902;-75
2021/11/11 02:03:25;;;;;;;77.22;41.70;;;;;;;1.37;84.12;101706.87;1742787;82;21386;-75
2021/11/11 02:05:52;;;;;;;;;;;;;;;1.32;84.13;101706.28;1746151;82;21535;-75
2021/11/11 02:08:19;;;;;;;;;;;;;;;1.30;84.22;101692.61;1756437;80;20173;-75
2021/11/11 02:10:45;;;;;;;74.67;37.05;;;;;;;1.26;84.28;101686.94;1773842;80;20180;-75
2021/11/11 02:13:15;;;;;;;74.12;38.55;;;;;;;1.27;84.27;101700.55;1745383;80;21032;-75
2021/11/11 02:15:42;;;;;;;78.22;39.10;;;;;;;1.25;84.24;101700.89;1752163;80;21000;-75
2021/11/11 02:18:10;;;;;;;77.75;39.42;;;;;;;1.22;84.21;101702.04;1769278;80;22093;-75
2021/11/11 02:20:40;;;;;;;78.40;39.33;;;;;;;1.20;84.24;101702.38;1766125;80;20973;-75
2021/11/11 02:23:15;;;;;;;73.60;40.90;;;;;;;1.18;84.24;101702.33;1758423;80;21072;-75
2021/11/11 02:25:42;;;;;;;76.57;39.88;;;;;;;1.19;84.30;101701.92;1773138;80;21531;-76
2021/11/11 02:28:13;;;;;;;71.60;40.10;;;;;;;1.20;84.29;101697.29;1760943;80;23778;-76
2021/11/11 02:30:44;;;;;;;76.12;39.65;;;;;;;1.19;84.31;101697.70;1773728;80;21001;-76
2021/11/11 02:33:20;;;;;;;75.22;38.83;;;;;;;1.19;84.34;101701.52;1744984;82;20967;-76
2021/11/11 02:35:46;;;;;;;82.75;40.35;;;;;;;1.18;84.30;101698.50;1749814;80;21484;-75
2021/11/11 02:38:15;;;;;;;85.22;43.17;;;;;;;1.18;84.37;101700.18;1714157;80;361850;-75
2021/11/11 02:40:41;;;;;;;76.00;40.45;;;;;;;1.19;84.38;101712.11;1710540;83;21515;-75
2021/11/11 02:43:09;;;;;;;82.97;41.65;;;;;;;1.20;84.40;101711.30;1690561;83;27248;-75
2021/11/11 02:48:28;;;;;;;76.97;38.28;;;;;;;1.20;84.38;101708.75;1670440;85;21013;-75
2021/11/11 02:50:54;;;;;;;79.50;40.58;;;;;;;1.20;84.38;101705.80;1670282;85;20948;-75
2021/11/11 02:53:21;;;;;;;81.78;41.92;;;;;;;1.22;84.47;101704.59;1669457;84;25319;-75
2021/11/11 02:55:49;;;;;;;80.87;41.83;;;;;;;1.24;84.54;101701.29;1668173;85;21507;-75
2021/11/11 02:58:16;;;;;;;77.92;41.53;;;;;;;1.26;84.55;101699.67;1671254;85;20972;-75
2021/11/11 03:00:50;;;;;;;77.10;41.70;;;;;;;1.29;84.56;101703.61;1671643;85;20953;-75
2021/11/11 03:03:17;;;;;;;73.87;40.60;;;;;;;1.33;84.58;101703.33;1671087;85;20960;-75
2021/11/11 03:05:52;;;;;;;88.60;44.85;;;;;;;1.36;84.59;101708.95;1671491;85;21315;-75
2021/11/11 03:08:18;;;;;;;83.73;44.93;;;;;;;1.38;84.57;101714.97;1670554;85;20924;-75
2021/11/11 03:10:44;;;;;;;88.45;43.68;;;;;;;1.40;84.60;101720.59;1671283;85;20960;-75
2021/11/11 03:13:12;;;;;;;;;;;;;;;1.43;84.61;101728.36;1673789;85;20961;-75
2021/11/11 03:15:39;;;;;;;74.95;41.28;;;;;;;1.45;84.66;101725.88;1670192;85;20326;-75
2021/11/11 03:18:05;;;;;;;;;;;;;;;1.46;84.62;101730.16;1674953;84;20917;-75
2021/11/11 03:20:31;;;;;;;80.15;42.25;;;;;;;1.49;84.72;101730.28;1718390;83;20198;-75
2021/11/11 03:23:00;;;;;;;82.27;45.83;;;;;;;1.49;84.63;101729.88;1686861;84;20953;-75
2021/11/11 03:25:28;;;;;;;;;;;;;;;1.50;84.64;101730.74;1677095;84;20966;-75
2021/11/11 03:27:55;;;;;;;77.67;41.37;;;;;;;1.52;84.71;101734.22;1718165;83;20112;-75
2021/11/11 03:30:23;;;;;;;81.15;42.95;;;;;;;1.52;84.64;101729.13;1690512;84;20898;-75
2021/11/11 03:32:51;;;;;;;76.65;42.00;;;;;;;1.51;84.60;101726.98;1668872;84;20929;-75
2021/11/11 03:35:20;;;;;;;73.30;41.28;;;;;;;1.49;84.45;101721.36;1670588;85;21412;-75
2021/11/11 03:37:48;;;;;;;77.82;41.42;;;;;;;1.45;84.41;101719.09;1670525;85;20887;-75
2021/11/11 03:40:19;;;;;;;68.67;38.53;;;;;;;1.42;84.41;101710.46;1645661;85;20936;-75
2021/11/11 03:42:48;;;;;;;71.45;37.13;;;;;;;1.40;84.45;101700.21;1665403;84;21374;-75
2021/11/11 03:45:14;;;;;;;70.78;36.85;;;;;;;1.36;84.41;101697.08;1672704;84;21479;-75
2021/11/11 03:47:40;;;;;;;;;;;;;;;1.32;84.35;101688.85;1677337;84;20962;-75
2021/11/11 03:50:07;;;;;;;66.50;36.77;;;;;;;1.28;84.44;101681.49;1688637;84;20273;-77
2021/11/11 03:52:34;;;;;;;72.62;39.80;;;;;;;1.25;84.43;101672.45;1676145;83;20981;-78
2021/11/11 03:55:01;;;;;;;73.92;39.30;;;;;;;1.22;84.39;101667.65;1680907;84;21092;-76
2021/11/11 03:57:27;;;;;;;68.28;38.05;;;;;;;1.15;84.30;101667.81;1687375;84;21590;-76
2021/11/11 03:59:56;;;;;;;76.57;39.23;;;;;;;1.10;84.29;101664.63;1673614;84;21575;-75
2021/11/11 04:02:23;;;;;;;76.75;40.63;;;;;;;1.07;84.37;101664.50;1715789;83;21583;-75
2021/11/11 04:04:51;;;;;;;73.67;40.55;;;;;;;1.04;84.37;101659.32;1693867;83;21124;-75
2021/11/11 04:07:17;;;;;;;69.12;37.40;;;;;;;0.98;84.32;101657.00;1714112;83;21385;-75
2021/11/11 04:09:43;;;;;;;71.45;40.58;;;;;;;0.95;84.37;101654.33;1672761;83;21607;-75
2021/11/11 04:12:11;;;;;;;73.25;41.37;;;;;;;0.91;84.34;101659.23;1649656;86;20993;-75
2021/11/11 04:14:39;;;;;;;79.47;40.33;;;;;;;0.87;84.40;101651.02;1660283;84;21636;-75
2021/11/11 04:17:05;;;;;;;87.95;42.50;;;;;;;0.85;84.42;101643.31;1638078;86;20993;-75
2021/11/11 04:19:31;;;;;;;87.10;44.60;;;;;;;0.81;84.41;101645.67;1668773;84;21754;-75
2021/11/11 04:21:57;;;;;;;82.47;43.35;;;;;;;0.81;84.43;101648.22;1660189;85;21618;-75
2021/11/11 04:24:24;;;;;;;91.15;39.98;;;;;;;0.79;84.44;101651.11;1660483;85;21008;-75
2021/11/11 04:26:57;;;;;;;69.17;37.05;;;;;;;0.76;84.41;101646.77;1674539;83;21114;-75
2021/11/11 04:29:26;;;;;;;71.53;39.05;;;;;;;0.71;84.31;101648.25;1697834;83;412543;-75
2021/11/11 04:32:02;;;;;;;82.85;40.88;;;;;;;0.67;84.34;101652.75;1700309;83;21384;-75
2021/11/11 04:34:20;;;;;;;76.37;37.80;;;;;;;0.64;84.36;101657.72;1685133;83;21494;-75
2021/11/11 04:42:42;;;;;;;78.12;40.25;;;;;;;0.42;84.28;101670.39;1642175;85;21505;-75
2021/11/11 04:44:53;;;;;;;76.47;38.73;;;;;;;0.39;84.38;101672.41;1692419;84;21528;-75
2021/11/11 04:52:43;;;;;;;82.37;44.27;;;;;;;0.39;84.45;101676.62;1667889;83;21333;-76
2021/11/11 05:05:40;;;;;;;69.47;37.63;;;;;;;0.17;84.29;101677.37;1671526;84;20935;-75
2021/11/11 05:08:07;;;;;;;78.95;37.65;;;;;;;0.11;84.26;101674.17;1690106;84;21470;-75
2021/11/11 05:10:33;;;;;;;82.40;38.75;;;;;;;0.07;84.32;101674.84;1682522;84;20963;-75
2021/11/11 05:12:59;;;;;;;96.28;37.88;;;;;;;0.04;84.33;101685.27;1677153;84;29094;-75
2021/11/11 05:15:25;;;;;;;90.10;37.13;;;;;;;0.01;84.37;101679.66;1671804;84;20888;-75
2021/11/11 05:17:51;;;;;;;80.60;34.90;;;;;;;-0.03;84.30;101682.90;1689955;84;21518;-75
2021/11/11 05:20:20;;;;;;;88.62;36.13;;;;;;;-0.06;84.36;101672.59;1658508;86;21661;-75
2021/11/11 05:22:48;;;;;;;98.58;38.58;;;;;;;-0.13;84.33;101665.10;1680579;83;20927;-75
2021/11/11 05:25:16;;;;;;;77.10;33.28;;;;;;;-0.16;84.38;101668.78;1640560;86;21492;-75
2021/11/11 05:27:44;;;;;;;64.47;31.30;;;;;;;-0.21;84.33;101671.91;1658270;84;21765;-75
2021/11/11 05:30:18;;;;;;;79.25;33.58;;;;;;;-0.26;84.34;101665.76;1646895;85;20957;-75
2021/11/11 05:32:46;;;;;;;66.28;31.15;;;;;;;-0.28;84.44;101672.44;1628545;88;21580;-75
2021/11/11 05:35:12;;;;;;;61.08;32.15;;;;;;;-0.32;84.38;101667.63;1628676;87;20937;-75
2021/11/11 05:37:39;;;;;;;67.65;33.58;;;;;;;-0.34;84.47;101669.22;1651634;85;20972;-75
2021/11/11 05:40:09;;;;;;;58.25;33.75;;;;;;;-0.35;84.55;101670.89;1689215;83;21357;-75
2021/11/11 05:42:37;;;;;;;52.67;30.08;;;;;;;-0.34;84.57;101666.28;1652444;86;21449;-75
2021/11/11 05:45:06;;;;;;;65.20;33.65;;;;;;;-0.32;84.54;101672.70;1692843;84;20958;-75
2021/11/11 05:47:32;;;;;;;57.58;33.33;;;;;;;-0.32;84.57;101653.65;1688941;82;20948;-75
2021/11/11 05:49:58;;;;;;;63.52;33.00;;;;;;;-0.30;84.63;101652.05;1644556;82;5000457;-75
2021/11/11 05:52:24;;;;;;;64.03;34.53;;;;;;;-0.27;84.61;101652.18;1735107;81;20913;-76
2021/11/11 05:54:51;;;;;;;69.30;35.17;;;;;;;-0.24;84.69;101656.13;1693024;81;21779;-76
2021/11/11 05:57:20;;;;;;;69.92;35.17;;;;;;;-0.22;84.63;101662.15;1732553;81;21842;-76
2021/11/11 05:59:46;;;;;;;68.02;35.25;;;;;;;-0.20;84.65;101664.76;1733455;81;20865;-76
2021/11/11 06:02:14;;;;;;;68.75;33.73;;;;;;;-0.19;84.63;101653.39;1728492;81;22600;-76
2021/11/11 06:04:42;;;;;;;70.55;34.98;;;;;;;-0.17;84.60;101650.92;1738002;81;20872;-74
2021/11/11 06:07:09;;;;;;;64.25;34.90;;;;;;;-0.17;84.58;101653.06;1737698;81;20941;-75
2021/11/11 06:09:36;;;;;;;78.27;37.23;;;;;;;-0.16;84.63;101648.44;1733974;81;20933;-75
2021/11/11 06:12:03;;;;;;;80.47;36.70;;;;;;;-0.12;84.69;101639.28;1724806;81;21760;-75
2021/11/11 06:14:29;;;;;;;84.20;39.88;;;;;;;-0.10;84.69;101637.67;1714615;81;20901;-75
2021/11/11 06:16:55;;;;;;;76.95;38.85;;;;;;;-0.10;84.62;101646.17;1727326;81;21360;-75
2021/11/11 06:19:21;;;;;;;74.50;37.95;;;;;;;-0.11;84.62;101648.64;1708331;81;20915;-75
2021/11/11 06:21:48;;;;;;;78.02;38.53;;;;;;;-0.11;84.63;101647.37;1725651;81;20914;-75
2021/11/11 06:24:15;;;;;;;71.45;37.58;;;;;;;-0.10;84.72;101648.71;1724769;82;20915;-75
2021/11/11 06:26:42;;;;;;;75.75;37.10;;;;;;;-0.07;84.74;101647.58;1687793;84;20937;-75
2021/11/11 06:29:08;;;;;;;77.65;39.00;;;;;;;-0.03;84.77;101644.77;1727136;81;20958;-75
2021/11/11 06:31:34;;;;;;;84.58;38.95;;;;;;;0.00;84.76;101639.81;1724774;81;20953;-75
2021/11/11 06:34:01;;;;;;;73.37;37.63;;;;;;;0.03;84.74;101644.13;1727552;81;20901;-75
2021/11/11 06:36:28;;;;;;;83.55;39.35;;;;;;;0.06;84.77;101641.72;1724591;82;20918;-75
2021/11/11 06:38:54;;;;;;;;;;;;;;;0.10;84.83;101636.83;1692646;84;21286;-75
2021/11/11 06:41:21;;;;;;;78.17;34.98;;;;;;;0.13;84.81;101641.17;1689387;83;20097;-75
2021/11/11 06:43:47;;;;;;;71.10;38.73;;;;;;;0.16;84.83;101640.03;1708990;81;20989;-75
2021/11/11 06:46:14;;;;;;;85.47;42.78;;;;;;;0.20;84.87;101641.91;1728567;81;20887;-75
2021/11/11 06:48:40;;;;;;;;;;;;;;;0.23;84.82;101647.13;1737691;82;20921;-75
2021/11/11 06:51:07;;;;;;;72.70;35.58;;;;;;;0.25;84.88;101651.47;1736589;82;20188;-75
2021/11/11 06:53:34;;;;;;;65.52;38.53;;;;;;;0.31;84.93;101653.41;1733482;82;20913;-76
2021/11/11 06:56:00;;;;;;;74.80;39.27;;;;;;;0.37;84.99;101656.20;1720501;82;20965;-76
2021/11/11 06:58:27;;;;;;;67.00;38.23;;;;;;;0.46;85.06;101656.59;1737167;82;20926;-76
2021/11/11 07:01:00;;;;;;;74.92;40.25;;;;;;;0.52;85.05;101658.08;1737575;82;26605;-76
2021/11/11 07:03:27;;;;;;;73.83;39.30;;;;;;;0.59;85.01;101665.16;1736602;82;21413;-76
2021/11/11 07:05:54;;;;;;;72.47;38.25;;;;;;;0.67;85.06;101671.84;1718921;82;20902;-77
2021/11/11 07:08:20;;;;;;;75.97;38.58;;;;;;;0.73;84.98;101668.28;1721103;82;21325;-81
2021/11/11 07:10:50;;;;;;;70.90;38.90;;;;;;;0.79;84.96;101671.47;1738042;82;20972;-82
2021/11/11 07:13:17;;;;;;;64.67;37.80;;;;;;;0.84;84.96;101672.53;1719922;82;20889;-82
2021/11/11 07:15:43;;;;;;;;;;;;;;;0.91;84.99;101664.33;1740143;82;20945;-82
2021/11/11 07:18:14;;;;;;;77.47;43.23;;;;;;;0.97;85.09;101663.30;1734321;81;20141;-82
2021/11/11 07:20:44;;;;;;;87.20;49.90;;;;;;;1.04;85.12;101665.69;1723422;81;20957;-82
2021/11/11 07:23:12;;;;;;;83.45;48.15;;;;;;;1.12;85.12;101666.42;1727838;81;20936;-82
2021/11/11 07:25:38;;;;;;;80.87;43.60;;;;;;;1.21;85.17;101672.28;1719212;82;20945;-82
2021/11/11 07:28:04;;;;;;;74.15;42.93;;;;;;;1.28;85.16;101674.25;1729391;82;21020;-82
2021/11/11 07:30:31;;;;;;;73.95;41.53;;;;;;;1.33;85.07;101674.03;1712251;82;21112;-82
2021/11/11 07:32:57;;;;;;;76.65;44.85;;;;;;;1.37;85.13;101672.06;1735138;81;21061;-82
2021/11/11 07:35:24;;;;;;;73.90;42.00;;;;;;;1.46;85.16;101673.69;1733439;82;20972;-82
2021/11/11 07:37:52;;;;;;;74.87;41.80;;;;;;;1.54;85.17;101684.17;1726978;82;21612;-82
2021/11/11 07:40:21;;;;;;;74.10;41.15;;;;;;;1.60;85.17;101681.41;1729770;82;20972;-82
2021/11/11 07:42:48;;;;;;;77.87;43.40;;;;;;;1.64;85.16;101671.80;1717391;82;20987;-82
2021/11/11 07:45:23;;;;;;;66.90;38.55;;;;;;;1.71;85.18;101669.47;1731221;81;21128;-82
2021/11/11 07:47:46;;;;;;;68.97;37.50;;;;;;;1.76;85.12;101677.75;1722530;81;21622;-82
2021/11/11 07:50:12;;;;;;;75.15;39.73;;;;;;;1.80;85.08;101683.43;1692660;82;21100;-82
2021/11/11 07:52:39;;;;;;;76.67;42.60;;;;;;;1.83;85.08;101687.37;1721659;81;21040;-75
2021/11/11 07:55:08;;;;;;;71.45;40.43;;;;;;;1.87;85.16;101684.12;1690374;83;21048;-75
2021/11/11 07:57:35;;;;;;;72.08;38.60;;;;;;;1.92;85.19;101677.91;1714525;81;21618;-74
2021/11/11 08:00:06;;;;;;;68.40;39.23;;;;;;;1.94;85.14;101678.42;1701630;81;20976;-74
2021/11/11 08:02:33;;;;;;;90.28;46.10;;;;;;;2.01;85.20;101686.30;1718053;81;21365;-74
2021/11/11 08:04:59;;;;;;;92.78;46.95;;;;;;;2.04;85.20;101683.45;1633533;84;20960;-75
2021/11/11 08:07:25;;;;;;;93.72;46.30;;;;;;;2.11;85.28;101687.05;1723324;81;20949;-74
2021/11/11 08:09:54;;;;;;;89.42;45.20;;;;;;;2.15;85.32;101685.08;1727333;81;21382;-75
2021/11/11 08:12:21;;;;;;;84.10;47.25;;;;;;;2.21;85.35;101676.36;1726247;81;20946;-75
2021/11/11 08:14:48;;;;;;;97.92;49.15;;;;;;;2.27;85.37;101680.41;1725737;81;21803;-74
2021/11/11 08:17:18;;;;;;;99.25;50.17;;;;;;;2.32;85.44;101681.02;1720929;81;20939;-74
2021/11/11 08:19:43;;;;;;;100.65;49.35;;;;;;;2.39;85.48;101673.17;1724426;81;20886;-74
2021/11/11 08:22:12;;;;;;;90.35;46.20;;;;;;;2.44;85.43;101672.92;1708680;82;20959;-74
2021/11/11 08:24:43;;;;;;;77.70;43.13;;;;;;;2.50;85.49;101671.85;1704689;81;20962;-74
2021/11/11 08:27:11;;;;;;;78.80;41.88;;;;;;;2.56;85.52;101670.78;1686925;83;20921;-74
2021/11/11 08:29:37;;;;;;;72.90;39.63;;;;;;;2.62;85.54;101673.92;1661419;84;20889;-74
2021/11/11 08:32:04;;;;;;;76.45;43.13;;;;;;;2.67;85.54;101663.45;1725641;81;20965;-75
2021/11/11 08:34:30;;;;;;;82.30;45.92;;;;;;;2.73;85.57;101661.09;1720546;81;20957;-75
2021/11/11 08:36:55;;;;;;;85.73;46.97;;;;;;;2.78;85.57;101662.52;1712675;82;21593;-75
2021/11/11 08:39:22;;;;;;;80.63;41.90;;;;;;;2.83;85.60;101655.88;1704563;83;20931;-74
2021/11/11 08:41:49;;;;;;;69.10;37.93;;;;;;;2.87;85.61;101657.30;1726775;81;21152;-75
2021/11/11 08:44:15;;;;;;;75.52;39.75;;;;;;;2.91;85.63;101655.30;1722388;81;20956;-81
2021/11/11 08:46:41;;;;;;;74.20;39.80;;;;;;;2.97;85.64;101650.39;1727681;83;20979;-79
2021/11/11 08:49:08;;;;;;;64.65;37.50;;;;;;;3.03;85.67;101650.98;1717686;81;20877;-86
2021/11/11 08:51:35;;;;;;;74.70;43.87;;;;;;;3.09;85.70;101656.30;1694533;83;20941;-86
2021/11/11 08:54:04;;;;;;;81.55;44.63;;;;;;;3.14;85.63;101662.38;1719499;83;20910;-86
2021/11/11 08:56:31;;;;;;;79.37;43.87;;;;;;;3.20;85.73;101656.19;1712677;81;20948;-86
2021/11/11 08:59:00;;;;;;;78.62;43.50;;;;;;;3.24;85.64;101652.03;1707363;82;20934;-86
2021/11/11 09:01:27;;;;;;;89.20;46.98;;;;;;;3.27;85.65;101651.72;1708816;81;20919;-86
2021/11/11 09:03:55;;;;;;;89.72;47.43;;;;;;;3.33;85.71;101654.45;1720143;82;20969;-86
2021/11/11 09:06:21;;;;;;;80.03;45.30;;;;;;;3.36;85.68;101648.57;1663311;85;20897;-86
2021/11/11 09:08:51;;;;;;;86.70;42.55;;;;;;;3.42;85.68;101660.67;1725578;81;20974;-86
2021/11/11 09:11:16;;;;;;;70.00;43.10;;;;;;;3.46;85.67;101652.27;1726006;82;20898;-86
2021/11/11 09:13:46;;;;;;;78.67;42.38;;;;;;;3.51;85.68;101655.42;1716816;83;20953;-86
2021/11/11 09:16:13;;;;;;;70.83;39.15;;;;;;;3.56;85.73;101657.70;1718501;83;20895;-86
2021/11/11 09:18:41;;;;;;;76.57;39.08;;;;;;;3.60;85.76;101656.97;1719057;83;20945;-85
2021/11/11 09:21:12;;;;;;;67.87;39.65;;;;;;;3.65;85.80;101663.46;1726768;81;20910;-87
2021/11/11 09:23:40;;;;;;;67.00;36.80;;;;;;;3.71;85.81;101658.52;1727434;81;21475;-76
2021/11/11 09:26:08;;;;;;;60.78;36.25;;;;;;;3.77;85.81;101662.53;1727354;82;20874;-76
2021/11/11 09:28:41;;;;;;;58.58;36.33;;;;;;;3.81;85.78;101666.05;1716870;81;20878;-76
2021/11/11 09:31:09;;;;;;;;;;;;;;;3.86;85.80;101665.36;1729988;81;21808;-76
2021/11/11 09:33:37;;;;;;;48.83;32.23;;;;;;;3.89;85.83;101674.81;1723599;81;20149;-76
2021/11/11 09:36:03;;;;;;;60.35;36.10;;;;;;;3.93;85.78;101681.75;1727548;81;20956;-76
2021/11/11 09:38:29;;;;;;;58.55;35.10;;;;;;;3.95;85.77;101677.54;1716151;81;20886;-76
2021/11/11 09:40:56;;;;;;;67.47;38.00;;;;;;;3.98;85.79;101675.06;1724417;83;20881;-76
2021/11/11 09:43:24;;;;;;;61.25;36.95;;;;;;;4.03;85.84;101672.22;1725665;82;21368;-76
2021/11/11 09:45:50;;;;;;;54.40;34.43;;;;;;;4.07;85.79;101687.25;1711189;83;20915;-76
2021/11/11 09:48:17;;;;;;;61.20;36.00;;;;;;;4.10;85.81;101675.81;1714789;83;20932;-76
2021/11/11 09:50:46;;;;;;;57.98;36.83;;;;;;;4.12;85.80;101674.17;1706491;83;20936;-76
2021/11/11 09:53:16;;;;;;;52.00;33.25;;;;;;;4.15;85.80;101681.93;1708423;82;20875;-76
2021/11/11 09:58:34;;;;;;;59.13;34.60;;;;;;;4.20;85.89;101676.08;1698252;82;21543;-76
2021/11/11 10:01:03;;;;;;;56.42;33.28;;;;;;;4.22;85.85;101679.55;1699826;82;21031;-76
2021/11/11 10:03:30;;;;;;;58.10;34.75;;;;;;;4.22;85.83;101672.28;1695844;82;20966;-76
2021/11/11 10:05:58;;;;;;;57.03;36.28;;;;;;;4.25;85.87;101674.92;1707316;83;20911;-76
2021/11/11 10:08:40;;;;;;;61.73;35.83;;;;;;;4.30;85.89;101682.31;1705590;83;20949;-77
2021/11/11 10:11:15;;;;;;;58.02;34.45;;;;;;;4.33;85.88;101677.27;1676425;83;20902;-77
2021/11/11 10:13:41;;;;;;;58.50;35.45;;;;;;;4.37;85.87;101679.50;1645979;86;21879;-77
2021/11/11 10:16:12;;;;;;;57.35;35.78;;;;;;;4.39;85.88;101684.25;1669416;84;20874;-77
2021/11/11 10:18:51;;;;;;;56.68;35.38;;;;;;;4.41;85.90;101687.72;1713551;83;20938;-78
2021/11/11 10:21:52;;;;;;;59.35;36.08;;;;;;;4.44;85.90;101695.48;1699977;83;20946;-77
2021/11/11 10:24:36;;;;;;;60.65;35.23;;;;;;;4.46;85.87;101693.41;1709260;82;20914;-77
2021/11/11 10:27:28;;;;;;;70.25;38.40;;;;;;;4.50;85.94;101690.52;1699495;83;20887;-77
2021/11/11 10:30:03;;;;;;;65.55;39.67;;;;;;;4.55;85.98;101684.69;1702668;82;20918;-76
2021/11/11 10:32:35;;;;;;;69.82;37.45;;;;;;;4.57;85.94;101674.48;1709346;82;20890;-75
2021/11/11 10:35:17;;;;;;;68.72;39.55;;;;;;;4.60;85.93;101668.16;1709275;83;20938;-77
2021/11/11 10:37:57;;;;;;;67.97;38.48;;;;;;;4.62;85.95;101666.50;1704125;83;20931;-76
2021/11/11 10:40:29;;;;;;;70.52;39.78;;;;;;;4.64;85.94;101668.27;1706022;83;20922;-76
2021/11/11 10:42:56;;;;;;;70.03;39.95;;;;;;;4.70;86.00;101667.94;1690247;83;20907;-76
2021/11/11 10:45:33;;;;;;;69.35;38.13;;;;;;;4.74;86.05;101669.34;1698914;83;20891;-76
2021/11/11 10:48:03;;;;;;;60.03;36.00;;;;;;;4.80;86.06;101660.52;1716275;82;21416;-76
2021/11/11 10:50:37;;;;;;;61.83;35.78;;;;;;;4.82;85.97;101653.73;1723916;83;20910;-76
2021/11/11 10:53:09;;;;;;;66.12;38.20;;;;;;;4.85;85.97;101658.94;1724342;83;20952;-76
2021/11/11 10:55:41;;;;;;;54.63;34.33;;;;;;;4.87;86.02;101657.28;1707830;83;20905;-76
2021/11/11 10:58:14;;;;;;;57.88;34.03;;;;;;;4.89;85.95;101663.72;1725673;81;20898;-75
2021/11/11 11:01:10;;;;;;;54.65;33.50;;;;;;;4.89;85.93;101665.00;1723574;83;20902;-75
2021/11/11 11:03:46;;;;;;;61.27;35.43;;;;;;;4.90;85.90;101660.33;1695098;83;20913;-75
2021/11/11 11:06:19;;;;;;;53.10;31.20;;;;;;;4.92;85.98;101656.11;1691812;83;20902;-75
2021/11/11 11:08:54;;;;;;;59.45;33.33;;;;;;;4.95;85.96;101656.18;1717602;83;20905;-75
2021/11/11 11:11:29;;;;;;;62.03;32.80;;;;;;;4.94;85.92;101650.60;1724704;82;20874;-75
2021/11/11 11:14:12;;;;;;;56.25;32.85;;;;;;;4.93;85.93;101653.58;1643094;85;20894;-75
2021/11/11 11:16:38;;;;;;;71.15;36.38;;;;;;;4.92;85.90;101648.42;1639581;85;20949;-75
2021/11/11 11:19:14;;;;;;;58.20;32.45;;;;;;;4.91;85.92;101644.13;1643836;86;21523;-75
2021/11/11 11:21:50;;;;;;;64.87;35.63;;;;;;;4.92;85.96;101645.86;1620054;87;20962;-75
2021/11/11 11:24:25;;;;;;;69.12;36.83;;;;;;;4.94;86.07;101645.06;1647959;85;21040;-75
2021/11/11 11:27:00;;;;;;;64.30;35.10;;;;;;;4.98;86.09;101627.64;1643247;85;20894;-75
2021/11/11 11:29:57;;;;;;;64.07;36.68;;;;;;;5.01;86.06;101631.97;1641026;85;20930;-75
2021/11/11 11:32:21;;;;;;;62.13;35.52;;;;;;;5.03;86.04;101632.88;1640669;86;20962;-75
2021/11/11 11:34:50;;;;;;;64.92;36.42;;;;;;;5.06;86.09;101635.51;1645826;86;21021;-75
2021/11/11 11:37:20;;;;;;;68.65;38.95;;;;;;;5.08;86.07;101627.85;1643706;86;20926;-75
2021/11/11 11:39:53;;;;;;;68.62;37.33;;;;;;;5.12;86.16;101626.67;1609528;87;20953;-75
2021/11/11 11:42:28;;;;;;;66.82;38.38;;;;;;;5.19;86.19;101628.96;1648003;86;21006;-75
2021/11/11 11:45:16;;;;;;;69.67;37.65;;;;;;;5.24;86.18;101633.33;1685504;83;20885;-75
2021/11/11 11:47:59;;;;;;;70.67;39.53;;;;;;;5.28;86.16;101627.85;1716341;82;20946;-75
2021/11/11 11:50:27;;;;;;;73.75;39.30;;;;;;;5.35;86.17;101626.28;1662800;85;20908;-75
2021/11/11 11:53:01;;;;;;;75.78;40.45;;;;;;;5.38;86.19;101630.20;1647598;86;20938;-76
2021/11/11 11:55:33;;;;;;;71.90;39.25;;;;;;;5.43;86.18;101624.75;1660200;84;20945;-76